createdAt,value
2023-05-21T00:00:55.520Z,89.70
2023-05-21T00:01:57.034Z,89.82
2023-05-21T00:02:59.276Z,90.08
2023-05-21T00:04:01.151Z,90.48
2023-05-21T00:05:02.796Z,91.25
2023-05-21T00:06:04.575Z,90.71
2023-05-21T00:07:06.920Z,90.54
2023-05-21T00:08:08.683Z,90.02
2023-05-21T00:09:12.760Z,89.77
2023-05-21T00:10:14.466Z,90.07
2023-05-21T00:11:16.145Z,89.60
2023-05-21T00:12:17.770Z,90.16
2023-05-21T00:13:19.484Z,90.15
2023-05-21T00:14:21.120Z,90.41
2023-05-21T00:15:22.740Z,89.54
2023-05-21T00:16:25.390Z,89.59
2023-05-21T00:17:28.540Z,90.06
2023-05-21T00:18:32.248Z,90.16
2023-05-21T00:19:33.992Z,90.97
2023-05-21T00:20:35.688Z,90.91
2023-05-21T00:21:38.206Z,90.97
2023-05-21T00:22:40.372Z,90.99
2023-05-21T00:23:42.760Z,91.07
2023-05-21T00:24:47.187Z,91.72
2023-05-21T00:25:50.427Z,91.48
2023-05-21T00:26:52.124Z,91.37
2023-05-21T00:27:55.087Z,91.49
2023-05-21T00:28:56.857Z,91.59
2023-05-21T00:29:58.549Z,90.99
2023-05-21T00:31:00.218Z,90.49
2023-05-21T00:32:01.964Z,91.44
2023-05-21T00:33:04.132Z,91.17
2023-05-21T00:34:05.913Z,91.38
2023-05-21T00:35:08.226Z,91.22
2023-05-21T00:36:10.368Z,91.54
2023-05-21T00:37:11.952Z,91.58
2023-05-21T00:38:14.349Z,92.00
2023-05-21T00:39:16.098Z,92.00
2023-05-21T00:40:18.199Z,92.27
2023-05-21T00:41:19.943Z,92.56
2023-05-21T00:42:27.272Z,92.75
2023-05-21T00:43:28.998Z,92.65
2023-05-21T00:44:34.197Z,92.98
2023-05-21T00:45:37.337Z,93.44
2023-05-21T00:46:39.795Z,93.57
2023-05-21T00:47:42.276Z,93.11
2023-05-21T00:48:45.204Z,92.91
2023-05-21T00:49:48.258Z,92.91
2023-05-21T00:50:50.372Z,93.42
2023-05-21T00:51:53.013Z,93.30
2023-05-21T00:52:54.700Z,92.65
2023-05-21T00:53:56.972Z,92.35
2023-05-21T00:54:58.805Z,93.21
2023-05-21T00:56:01.314Z,93.07
2023-05-21T00:57:04.006Z,93.27
2023-05-21T00:58:06.567Z,93.13
2023-05-21T00:59:08.450Z,93.38
2023-05-21T01:00:12.141Z,93.38
2023-05-21T01:01:16.049Z,93.50
2023-05-21T01:02:20.781Z,93.29
2023-05-21T01:03:23.210Z,93.87
2023-05-21T01:04:24.770Z,93.72
2023-05-21T01:05:29.661Z,93.67
2023-05-21T01:06:34.693Z,93.95
2023-05-21T01:07:39.012Z,94.12
2023-05-21T01:08:41.878Z,93.95
2023-05-21T01:09:43.628Z,94.01
2023-05-21T01:10:45.255Z,94.57
2023-05-21T01:11:50.101Z,94.62
2023-05-21T01:12:52.669Z,94.28
2023-05-21T01:13:54.285Z,93.83
2023-05-21T01:14:56.234Z,93.93
2023-05-21T01:15:59.165Z,93.27
2023-05-21T01:17:02.218Z,93.22
2023-05-21T01:18:04.252Z,93.47
2023-05-21T01:19:07.115Z,93.31
2023-05-21T01:20:11.969Z,93.63
2023-05-21T01:21:17.289Z,93.72
2023-05-21T01:22:21.730Z,94.47
2023-05-21T01:23:23.630Z,94.30
2023-05-21T01:24:25.452Z,94.72
2023-05-21T01:25:27.108Z,94.17
2023-05-21T01:26:30.393Z,94.63
2023-05-21T01:27:32.012Z,94.81
2023-05-21T01:28:34.569Z,94.94
2023-05-21T01:29:36.289Z,94.82
2023-05-21T01:30:39.762Z,94.35
2023-05-21T01:32:10.073Z,94.27
2023-05-21T01:33:20.300Z,95.26
2023-05-21T01:34:26.743Z,94.33
2023-05-21T01:35:32.923Z,94.97
2023-05-21T01:36:40.922Z,94.33
2023-05-21T01:37:55.202Z,94.95
2023-05-21T01:39:14.836Z,94.84
2023-05-21T01:40:35.419Z,94.99
2023-05-21T01:41:38.776Z,94.84
2023-05-21T01:42:44.043Z,95.02
2023-05-21T01:43:46.567Z,95.25
2023-05-21T01:44:48.651Z,95.26
2023-05-21T01:45:54.728Z,95.26
2023-05-21T01:46:57.031Z,95.14
2023-05-21T01:47:58.716Z,95.39
2023-05-21T01:49:00.644Z,95.67
2023-05-21T01:50:03.764Z,95.84
2023-05-21T01:51:05.945Z,95.67
2023-05-21T01:52:07.517Z,96.09
2023-05-21T01:53:09.109Z,95.69
2023-05-21T01:54:10.738Z,96.12
2023-05-21T01:55:13.543Z,96.26
2023-05-21T01:56:15.957Z,96.88
2023-05-21T01:57:18.557Z,96.18
2023-05-21T01:58:21.168Z,96.06
2023-05-21T01:59:22.848Z,95.74
2023-05-21T02:00:28.249Z,96.23
2023-05-21T02:01:30.510Z,95.79
2023-05-21T02:02:32.399Z,95.74
2023-05-21T02:03:35.011Z,95.78
2023-05-21T02:04:37.331Z,94.84
2023-05-21T02:05:39.036Z,94.98
2023-05-21T02:06:41.768Z,94.95
2023-05-21T02:07:45.279Z,94.66
2023-05-21T02:08:48.449Z,94.57
2023-05-21T02:09:50.071Z,94.57
2023-05-21T02:10:52.374Z,94.52
2023-05-21T02:11:55.455Z,93.93
2023-05-21T02:12:57.082Z,94.11
2023-05-21T02:13:58.679Z,94.07
2023-05-21T02:15:00.276Z,94.41
2023-05-21T02:16:02.318Z,94.65
2023-05-21T02:17:04.097Z,94.67
2023-05-21T02:18:05.854Z,94.31
2023-05-21T02:19:10.407Z,94.17
2023-05-21T02:20:13.555Z,94.02
2023-05-21T02:21:15.580Z,94.23
2023-05-21T02:22:17.237Z,94.42
2023-05-21T02:23:18.817Z,94.27
2023-05-21T02:24:22.247Z,94.53
2023-05-21T02:25:24.101Z,94.08
2023-05-21T02:26:25.794Z,93.96
2023-05-21T02:27:29.018Z,93.74
2023-05-21T02:28:30.839Z,93.13
2023-05-21T02:29:32.873Z,93.15
2023-05-21T02:30:34.455Z,92.42
2023-05-21T02:31:36.048Z,92.18
2023-05-21T02:32:39.746Z,92.00
2023-05-21T02:33:42.065Z,92.68
2023-05-21T02:34:45.068Z,92.77
2023-05-21T02:35:46.848Z,93.49
2023-05-21T02:36:48.501Z,94.01
2023-05-21T02:37:50.125Z,93.68
2023-05-21T02:38:51.742Z,94.57
2023-05-21T02:39:56.611Z,94.25
2023-05-21T02:40:58.866Z,94.07
2023-05-21T02:42:00.718Z,94.38
2023-05-21T02:43:02.357Z,94.41
2023-05-21T02:44:06.199Z,94.43
2023-05-21T02:45:09.263Z,94.84
2023-05-21T02:46:11.546Z,93.57
2023-05-21T02:47:13.181Z,93.19
2023-05-21T02:48:14.946Z,93.17
2023-05-21T02:49:17.042Z,93.13
2023-05-21T02:50:22.745Z,93.28
2023-05-21T02:51:33.475Z,93.19
2023-05-21T02:52:35.482Z,93.45
2023-05-21T02:53:37.349Z,92.63
2023-05-21T02:54:39.354Z,93.29
2023-05-21T02:55:42.053Z,93.01
2023-05-21T02:56:43.729Z,92.72
2023-05-21T02:57:45.574Z,92.86
2023-05-21T02:58:47.256Z,93.89
2023-05-21T02:59:48.908Z,93.19
2023-05-21T03:00:50.805Z,93.96
2023-05-21T03:01:52.573Z,93.69
2023-05-21T03:02:54.371Z,93.42
2023-05-21T03:03:56.207Z,92.72
2023-05-21T03:04:58.978Z,93.02
2023-05-21T03:06:00.481Z,92.63
2023-05-21T03:07:02.293Z,92.81
2023-05-21T03:08:03.981Z,93.14
2023-05-21T03:09:06.001Z,93.42
2023-05-21T03:10:07.786Z,93.29
2023-05-21T03:11:09.976Z,94.15
2023-05-21T03:12:11.751Z,92.40
2023-05-21T03:13:13.482Z,92.16
2023-05-21T03:14:16.242Z,92.27
2023-05-21T03:15:18.182Z,91.52
2023-05-21T03:16:19.911Z,91.76
2023-05-21T03:17:22.236Z,91.97
2023-05-21T03:18:24.230Z,90.89
2023-05-21T03:19:26.443Z,91.19
2023-05-21T03:20:28.916Z,91.05
2023-05-21T03:21:32.204Z,91.10
2023-05-21T03:22:33.834Z,91.15
2023-05-21T03:23:35.575Z,90.12
2023-05-21T03:24:41.374Z,89.45
2023-05-21T03:25:44.084Z,89.50
2023-05-21T03:26:48.169Z,89.66
2023-05-21T03:27:49.968Z,90.13
2023-05-21T03:29:21.105Z,90.62
2023-05-21T03:30:22.897Z,90.54
2023-05-21T03:31:42.808Z,90.45
2023-05-21T03:32:47.175Z,90.12
2023-05-21T03:33:48.842Z,90.57
2023-05-21T03:34:56.252Z,90.71
2023-05-21T03:35:58.981Z,90.92
2023-05-21T03:37:03.236Z,90.30
2023-05-21T03:38:06.180Z,90.44
2023-05-21T03:39:07.805Z,90.77
2023-05-21T03:40:10.694Z,91.00
2023-05-21T03:41:13.459Z,91.92
2023-05-21T03:42:17.210Z,90.58
2023-05-21T03:43:26.387Z,90.60
2023-05-21T03:44:28.439Z,90.97
2023-05-21T03:45:35.816Z,91.18
2023-05-21T03:46:46.619Z,91.23
2023-05-21T03:47:55.390Z,91.29
2023-05-21T03:48:58.266Z,91.67
2023-05-21T03:50:01.705Z,91.80
2023-05-21T03:51:04.050Z,92.63
2023-05-21T03:52:06.133Z,92.46
2023-05-21T03:53:07.908Z,93.06
2023-05-21T03:54:09.539Z,93.58
2023-05-21T03:55:12.523Z,92.75
2023-05-21T03:56:14.204Z,93.86
2023-05-21T03:57:16.680Z,94.11
2023-05-21T03:58:23.194Z,93.86
2023-05-21T03:59:24.886Z,93.42
2023-05-21T04:00:26.853Z,93.71
2023-05-21T04:01:28.767Z,93.48
2023-05-21T04:02:32.398Z,93.68
2023-05-21T04:03:35.953Z,93.80
2023-05-21T04:04:39.668Z,92.66
2023-05-21T04:05:44.733Z,93.47
2023-05-21T04:06:48.274Z,92.90
2023-05-21T04:07:50.067Z,91.78
2023-05-21T04:08:52.249Z,91.90
2023-05-21T04:09:53.880Z,90.71
2023-05-21T04:10:55.615Z,91.12
2023-05-21T04:11:57.801Z,90.13
2023-05-21T04:12:59.402Z,89.83
2023-05-21T04:14:01.620Z,89.54
2023-05-21T04:15:04.571Z,90.38
2023-05-21T04:16:09.100Z,89.16
2023-05-21T04:17:12.732Z,88.42
2023-05-21T04:18:16.611Z,87.74
2023-05-21T04:19:18.408Z,87.68
2023-05-21T04:20:20.719Z,89.51
2023-05-21T04:21:22.434Z,88.89
2023-05-21T04:22:26.606Z,90.13
2023-05-21T04:23:28.390Z,89.69
2023-05-21T04:24:31.842Z,91.09
2023-05-21T04:25:45.328Z,90.19
2023-05-21T04:26:48.092Z,89.60
2023-05-21T04:27:50.545Z,90.54
2023-05-21T04:28:54.023Z,89.94
2023-05-21T04:29:55.780Z,87.75
2023-05-21T04:30:59.059Z,89.83
2023-05-21T04:32:00.777Z,89.15
2023-05-21T04:33:03.162Z,88.10
2023-05-21T04:34:05.118Z,87.21
2023-05-21T04:35:07.262Z,87.46
2023-05-21T04:36:10.552Z,87.31
2023-05-21T04:37:12.298Z,86.55
2023-05-21T04:38:14.111Z,85.88
2023-05-21T04:39:16.885Z,85.79
2023-05-21T04:40:18.635Z,85.80
2023-05-21T04:41:21.263Z,86.25
2023-05-21T04:42:26.209Z,85.65
2023-05-21T04:43:30.399Z,86.15
2023-05-21T04:44:33.731Z,85.44
2023-05-21T04:45:36.009Z,85.36
2023-05-21T04:46:39.676Z,85.28
2023-05-21T04:47:43.641Z,87.64
2023-05-21T04:48:46.760Z,87.48
2023-05-21T04:49:48.410Z,86.32
2023-05-21T04:50:50.854Z,86.01
2023-05-21T04:51:52.402Z,84.82
2023-05-21T04:52:55.081Z,84.50
2023-05-21T04:53:58.084Z,84.06
2023-05-21T04:54:59.698Z,83.59
2023-05-21T04:56:03.166Z,83.09
2023-05-21T04:57:06.427Z,83.74
2023-05-21T04:58:12.381Z,83.74
2023-05-21T04:59:14.960Z,83.21
2023-05-21T05:00:17.445Z,84.18
2023-05-21T05:01:23.739Z,83.28
2023-05-21T05:02:25.507Z,83.04
2023-05-21T05:03:27.281Z,83.07
2023-05-21T05:04:28.989Z,82.16
2023-05-21T05:05:30.991Z,82.77
2023-05-21T05:06:32.745Z,83.22
2023-05-21T05:07:34.394Z,82.57
2023-05-21T05:08:36.243Z,82.45
2023-05-21T05:09:38.632Z,81.66
2023-05-21T05:10:40.282Z,80.70
2023-05-21T05:11:41.916Z,80.67
2023-05-21T05:12:43.597Z,80.79
2023-05-21T05:13:45.199Z,81.13
2023-05-21T05:14:46.930Z,81.62
2023-05-21T05:15:50.243Z,81.90
2023-05-21T05:16:54.348Z,81.82
2023-05-21T05:17:56.671Z,80.60
2023-05-21T05:18:58.453Z,80.50
2023-05-21T05:20:00.990Z,80.84
2023-05-21T05:21:03.620Z,79.88
2023-05-21T05:22:05.450Z,80.72
2023-05-21T05:23:07.578Z,80.85
2023-05-21T05:24:09.171Z,81.32
2023-05-21T05:25:10.883Z,80.55
2023-05-21T05:26:12.682Z,79.79
2023-05-21T05:27:14.884Z,78.68
2023-05-21T05:28:16.650Z,79.03
2023-05-21T05:29:18.330Z,78.17
2023-05-21T05:30:20.753Z,78.29
2023-05-21T05:31:22.323Z,78.25
2023-05-21T05:32:24.063Z,76.91
2023-05-21T05:33:26.011Z,77.69
2023-05-21T05:34:28.120Z,76.00
2023-05-21T05:35:29.809Z,76.65
2023-05-21T05:36:31.603Z,76.57
2023-05-21T05:37:33.646Z,77.27
2023-05-21T05:38:36.242Z,76.13
2023-05-21T05:39:38.117Z,77.22
2023-05-21T05:40:39.888Z,75.80
2023-05-21T05:41:41.526Z,76.23
2023-05-21T05:42:43.260Z,77.50
2023-05-21T05:43:49.045Z,74.08
2023-05-21T05:44:51.528Z,72.60
2023-05-21T05:45:53.196Z,74.08
2023-05-21T05:46:54.878Z,74.06
2023-05-21T05:47:56.604Z,73.39
2023-05-21T05:48:58.257Z,73.27
2023-05-21T05:49:59.894Z,72.96
2023-05-21T05:51:01.829Z,73.33
2023-05-21T05:52:03.678Z,72.59
2023-05-21T05:53:05.536Z,74.20
2023-05-21T05:54:07.156Z,71.71
2023-05-21T05:55:11.901Z,71.11
2023-05-21T05:56:13.524Z,71.70
2023-05-21T05:57:15.872Z,72.56
2023-05-21T05:58:19.512Z,69.93
2023-05-21T05:59:33.768Z,71.35
2023-05-21T06:00:36.689Z,71.82
2023-05-21T06:01:38.898Z,71.48
2023-05-21T06:02:41.252Z,70.24
2023-05-21T06:03:44.254Z,69.80
2023-05-21T06:04:54.702Z,69.94
2023-05-21T06:05:56.385Z,70.10
2023-05-21T06:06:59.920Z,70.63
2023-05-21T06:08:01.788Z,71.48
2023-05-21T06:09:03.492Z,69.14
2023-05-21T06:10:08.581Z,69.42
2023-05-21T06:11:10.969Z,67.95
2023-05-21T06:12:15.907Z,68.77
2023-05-21T06:13:17.597Z,67.83
2023-05-21T06:14:19.887Z,67.85
2023-05-21T06:15:21.572Z,68.13
2023-05-21T06:16:23.252Z,67.93
2023-05-21T06:17:25.044Z,69.09
2023-05-21T06:18:27.794Z,68.47
2023-05-21T06:19:29.473Z,67.23
2023-05-21T06:20:31.166Z,66.61
2023-05-21T06:21:33.698Z,65.65
2023-05-21T06:22:37.007Z,65.47
2023-05-21T06:23:40.097Z,66.29
2023-05-21T06:24:42.005Z,66.56
2023-05-21T06:25:44.481Z,66.00
2023-05-21T06:26:46.426Z,66.02
2023-05-21T06:27:48.073Z,65.10
2023-05-21T06:28:55.405Z,66.57
2023-05-21T06:29:57.369Z,63.01
2023-05-21T06:30:59.016Z,64.41
2023-05-21T06:32:01.747Z,64.60
2023-05-21T06:33:03.664Z,63.40
2023-05-21T06:34:05.721Z,64.70
2023-05-21T06:35:08.264Z,66.50
2023-05-21T06:36:10.041Z,65.26
2023-05-21T06:37:11.697Z,63.04
2023-05-21T06:38:13.356Z,63.98
2023-05-21T06:39:15.057Z,62.11
2023-05-21T06:40:16.958Z,62.72
2023-05-21T06:41:18.616Z,62.51
2023-05-21T06:42:27.006Z,61.06
2023-05-21T06:43:48.701Z,61.92
2023-05-21T06:45:09.314Z,61.48
2023-05-21T06:46:17.621Z,58.77
2023-05-21T06:47:20.919Z,58.77
2023-05-21T06:48:22.584Z,58.33
2023-05-21T06:49:24.428Z,58.30
2023-05-21T06:50:26.397Z,57.43
2023-05-21T06:51:28.439Z,56.74
2023-05-21T06:52:31.760Z,57.21
2023-05-21T06:53:33.583Z,56.63
2023-05-21T06:54:35.524Z,56.12
2023-05-21T06:55:37.440Z,56.64
2023-05-21T06:57:08.943Z,56.82
2023-05-21T06:58:11.468Z,57.88
2023-05-21T06:59:13.149Z,58.10
2023-05-21T07:00:16.308Z,57.15
2023-05-21T07:01:18.051Z,56.62
2023-05-21T07:02:20.267Z,57.63
2023-05-21T07:03:22.860Z,57.02
2023-05-21T07:04:24.556Z,57.27
2023-05-21T07:05:26.181Z,55.62
2023-05-21T07:06:29.548Z,56.50
2023-05-21T07:07:34.765Z,57.68
2023-05-21T07:08:36.489Z,57.21
2023-05-21T07:09:38.417Z,57.30
2023-05-21T07:10:40.693Z,56.89
2023-05-21T07:11:42.377Z,57.84
2023-05-21T07:12:44.739Z,56.97
2023-05-21T07:13:46.364Z,57.89
2023-05-21T07:14:48.233Z,58.05
2023-05-21T07:15:50.016Z,56.47
2023-05-21T07:16:51.722Z,57.63
2023-05-21T07:17:53.398Z,58.26
2023-05-21T07:18:55.365Z,56.79
2023-05-21T07:19:57.034Z,56.36
2023-05-21T07:20:59.527Z,55.06
2023-05-21T07:22:01.740Z,56.25
2023-05-21T07:23:03.454Z,55.69
2023-05-21T07:24:05.149Z,53.98
2023-05-21T07:25:07.512Z,55.67
2023-05-21T07:26:10.192Z,56.67
2023-05-21T07:27:24.879Z,54.96
2023-05-21T07:28:27.848Z,53.41
2023-05-21T07:29:29.530Z,54.81
2023-05-21T07:30:31.231Z,53.12
2023-05-21T07:31:33.395Z,54.04
2023-05-21T07:32:35.512Z,54.03
2023-05-21T07:33:37.245Z,52.47
2023-05-21T07:34:38.855Z,54.13
2023-05-21T07:35:40.977Z,54.52
2023-05-21T07:36:42.661Z,52.94
2023-05-21T07:37:44.380Z,54.48
2023-05-21T07:38:46.151Z,54.07
2023-05-21T07:39:48.078Z,53.67
2023-05-21T07:40:49.754Z,54.07
2023-05-21T07:41:51.383Z,54.06
2023-05-21T07:42:53.100Z,52.89
2023-05-21T07:43:57.161Z,52.85
2023-05-21T07:44:58.862Z,51.62
2023-05-21T07:46:02.014Z,54.04
2023-05-21T07:47:04.855Z,52.55
2023-05-21T07:48:06.935Z,52.64
2023-05-21T07:49:16.485Z,52.64
2023-05-21T07:50:19.356Z,51.76
2023-05-21T07:51:21.057Z,51.33
2023-05-21T07:52:22.807Z,52.72
2023-05-21T07:53:24.585Z,51.77
2023-05-21T07:54:26.439Z,51.76
2023-05-21T07:55:28.336Z,52.96
2023-05-21T07:56:30.194Z,52.02
2023-05-21T07:57:31.973Z,51.76
2023-05-21T07:58:39.409Z,51.74
2023-05-21T07:59:41.040Z,51.72
2023-05-21T08:00:44.947Z,53.77
2023-05-21T08:01:46.887Z,53.21
2023-05-21T08:02:48.631Z,52.61
2023-05-21T08:03:50.956Z,52.65
2023-05-21T08:04:52.853Z,52.24
2023-05-21T08:05:54.657Z,51.47
2023-05-21T08:06:56.795Z,52.22
2023-05-21T08:07:58.427Z,52.60
2023-05-21T08:09:03.793Z,52.69
2023-05-21T08:10:06.407Z,52.30
2023-05-21T08:11:07.951Z,51.81
2023-05-21T08:12:10.031Z,52.55
2023-05-21T08:13:12.848Z,53.06
2023-05-21T08:14:14.621Z,50.79
2023-05-21T08:15:16.589Z,50.48
2023-05-21T08:16:21.359Z,49.89
2023-05-21T08:17:23.106Z,49.27
2023-05-21T08:18:25.416Z,50.65
2023-05-21T08:19:29.292Z,50.85
2023-05-21T08:20:32.622Z,49.15
2023-05-21T08:21:35.518Z,50.25
2023-05-21T08:22:37.174Z,50.34
2023-05-21T08:23:38.821Z,48.50
2023-05-21T08:24:41.342Z,48.38
2023-05-21T08:25:43.057Z,45.96
2023-05-21T08:26:47.447Z,47.63
2023-05-21T08:27:51.603Z,48.96
2023-05-21T08:28:54.230Z,47.07
2023-05-21T08:29:56.122Z,46.51
2023-05-21T08:30:57.930Z,46.14
2023-05-21T08:31:59.941Z,45.09
2023-05-21T08:33:02.502Z,45.94
2023-05-21T08:34:06.299Z,45.56
2023-05-21T08:35:18.379Z,44.24
2023-05-21T08:36:38.730Z,44.79
2023-05-21T08:37:50.239Z,44.54
2023-05-21T08:39:17.706Z,44.81
2023-05-21T08:40:19.379Z,44.24
2023-05-21T08:41:24.483Z,45.35
2023-05-21T08:42:42.633Z,42.36
2023-05-21T08:43:50.410Z,41.97
2023-05-21T08:44:55.093Z,42.75
2023-05-21T08:45:59.196Z,42.36
2023-05-21T08:47:06.742Z,42.14
2023-05-21T08:48:11.449Z,42.51
2023-05-21T08:49:17.556Z,41.83
2023-05-21T08:50:19.628Z,42.50
2023-05-21T08:51:22.589Z,43.91
2023-05-21T08:52:26.947Z,40.73
2023-05-21T08:53:29.314Z,42.17
2023-05-21T08:54:32.692Z,39.74
2023-05-21T08:55:35.359Z,40.37
2023-05-21T08:56:37.015Z,39.95
2023-05-21T08:57:43.389Z,40.79
2023-05-21T08:58:46.889Z,41.34
2023-05-21T08:59:51.194Z,42.06
2023-05-21T09:00:59.021Z,41.61
2023-05-21T09:02:03.601Z,41.91
2023-05-21T09:03:12.418Z,42.14
2023-05-21T09:04:21.387Z,41.10
2023-05-21T09:05:27.159Z,41.99
2023-05-21T09:06:29.308Z,40.97
2023-05-21T09:07:41.395Z,41.25
2023-05-21T09:09:17.096Z,39.42
2023-05-21T09:10:24.728Z,39.15
2023-05-21T09:11:26.790Z,39.91
2023-05-21T09:12:32.273Z,37.21
2023-05-21T09:13:38.834Z,37.74
2023-05-21T09:14:46.165Z,37.23
2023-05-21T09:15:51.695Z,36.75
2023-05-21T09:16:54.914Z,37.32
2023-05-21T09:17:57.547Z,37.51
2023-05-21T09:19:23.016Z,35.98
2023-05-21T09:20:26.600Z,36.11
2023-05-21T09:21:33.267Z,38.30
2023-05-21T09:22:41.811Z,37.83
2023-05-21T09:23:44.620Z,36.06
2023-05-21T09:24:47.925Z,35.51
2023-05-21T09:25:51.883Z,34.75
2023-05-21T09:27:03.298Z,33.77
2023-05-21T09:28:15.409Z,34.97
2023-05-21T09:29:17.121Z,33.91
2023-05-21T09:30:21.861Z,33.62
2023-05-21T09:31:29.443Z,33.44
2023-05-21T09:32:31.310Z,33.39
2023-05-21T09:33:33.141Z,33.36
2023-05-21T09:34:36.784Z,32.77
2023-05-21T09:35:45.007Z,33.22
2023-05-21T09:36:48.592Z,33.10
2023-05-21T09:37:52.855Z,33.18
2023-05-21T09:38:55.729Z,32.45
2023-05-21T09:39:57.340Z,31.76
2023-05-21T09:40:59.677Z,32.51
2023-05-21T09:42:02.476Z,32.41
2023-05-21T09:43:05.113Z,30.32
2023-05-21T09:44:06.835Z,30.89
2023-05-21T09:45:11.116Z,30.50
2023-05-21T09:46:13.081Z,30.92
2023-05-21T09:47:19.664Z,29.91
2023-05-21T09:48:37.798Z,30.24
2023-05-21T09:49:44.045Z,29.60
2023-05-21T09:50:45.893Z,29.60
2023-05-21T09:51:47.523Z,29.88
2023-05-21T09:52:51.047Z,30.11
2023-05-21T09:53:58.605Z,30.69
2023-05-21T09:55:00.227Z,29.63
2023-05-21T09:56:04.117Z,29.50
2023-05-21T09:57:06.023Z,29.99
2023-05-21T09:58:08.300Z,29.69
2023-05-21T09:59:09.934Z,30.57
2023-05-21T10:00:18.615Z,30.86
2023-05-21T10:01:21.307Z,27.82
2023-05-21T10:02:24.620Z,29.56
2023-05-21T10:03:28.397Z,29.23
2023-05-21T10:04:31.586Z,27.64
2023-05-21T10:05:33.629Z,28.04
2023-05-21T10:06:38.079Z,27.01
2023-05-21T10:07:42.372Z,25.80
2023-05-21T10:08:45.501Z,27.25
2023-05-21T10:09:50.694Z,27.27
2023-05-21T10:10:52.336Z,28.74
2023-05-21T10:11:54.492Z,28.07
2023-05-21T10:12:59.893Z,29.09
2023-05-21T10:14:06.185Z,29.21
2023-05-21T10:15:09.501Z,27.76
2023-05-21T10:16:11.539Z,27.42
2023-05-21T10:17:13.757Z,28.13
2023-05-21T10:18:16.432Z,29.54
2023-05-21T10:19:19.038Z,30.59
2023-05-21T10:20:21.205Z,30.61
2023-05-21T10:21:23.516Z,33.09
2023-05-21T10:22:25.629Z,31.30
2023-05-21T10:23:27.364Z,31.66
2023-05-21T10:24:29.028Z,31.16
2023-05-21T10:25:31.486Z,30.45
2023-05-21T10:26:33.320Z,30.29
2023-05-21T10:27:36.532Z,29.56
2023-05-21T10:28:38.449Z,32.79
2023-05-21T10:29:41.789Z,32.00
2023-05-21T10:30:43.570Z,33.02
2023-05-21T10:31:49.664Z,30.55
2023-05-21T10:32:51.869Z,31.28
2023-05-21T10:33:53.672Z,29.74
2023-05-21T10:34:56.066Z,28.62
2023-05-21T10:35:58.501Z,28.57
2023-05-21T10:37:02.377Z,29.94
2023-05-21T10:38:04.710Z,28.39
2023-05-21T10:39:07.893Z,27.17
2023-05-21T10:40:10.164Z,28.61
2023-05-21T10:41:12.479Z,27.86
2023-05-21T10:42:32.125Z,27.52
2023-05-21T10:44:07.365Z,27.37
2023-05-21T10:45:32.522Z,28.52
2023-05-21T10:46:59.065Z,28.00
2023-05-21T10:48:05.106Z,28.62
2023-05-21T10:49:12.439Z,30.02
2023-05-21T10:51:08.235Z,28.20
2023-05-21T10:52:51.423Z,29.18
2023-05-21T10:54:27.708Z,29.91
2023-05-21T10:55:34.965Z,30.32
2023-05-21T10:56:46.849Z,29.42
2023-05-21T10:58:00.337Z,28.70
2023-05-21T10:59:30.537Z,30.13
2023-05-21T11:00:32.320Z,29.59
2023-05-21T11:01:37.486Z,31.11
2023-05-21T11:02:39.337Z,30.41
2023-05-21T11:03:41.169Z,31.56
2023-05-21T11:04:48.862Z,30.46
2023-05-21T11:05:56.830Z,29.59
2023-05-21T11:06:59.158Z,28.36
2023-05-21T11:08:02.352Z,29.57
2023-05-21T11:09:14.115Z,28.82
2023-05-21T11:10:45.313Z,30.40
2023-05-21T11:11:51.273Z,30.33
2023-05-21T11:13:06.232Z,31.35
2023-05-21T11:14:26.305Z,30.73
2023-05-21T11:15:27.985Z,30.56
2023-05-21T11:16:29.811Z,30.98
2023-05-21T11:17:41.989Z,30.68
2023-05-21T11:18:46.313Z,32.27
2023-05-21T11:19:48.041Z,32.03
2023-05-21T11:20:52.254Z,31.84
2023-05-21T11:21:55.433Z,31.14
2023-05-21T11:22:58.241Z,31.50
2023-05-21T11:24:05.179Z,32.81
2023-05-21T11:25:07.253Z,32.81
2023-05-21T11:26:08.860Z,30.93
2023-05-21T11:27:12.403Z,30.87
2023-05-21T11:28:14.089Z,29.14
2023-05-21T11:29:16.153Z,30.53
2023-05-21T11:30:19.535Z,31.16
2023-05-21T11:31:28.057Z,33.48
2023-05-21T11:32:29.830Z,32.69
2023-05-21T11:33:31.547Z,34.94
2023-05-21T11:34:39.413Z,34.26
2023-05-21T11:35:50.109Z,35.63
2023-05-21T11:37:23.121Z,35.45
2023-05-21T11:38:28.402Z,35.93
2023-05-21T11:39:30.004Z,35.74
2023-05-21T11:40:31.807Z,35.48
2023-05-21T11:42:01.560Z,37.02
2023-05-21T11:43:04.828Z,35.73
2023-05-21T11:44:08.839Z,36.77
2023-05-21T11:45:10.956Z,35.91
2023-05-21T11:46:14.171Z,37.67
2023-05-21T11:47:18.412Z,35.85
2023-05-21T11:48:21.626Z,37.41
2023-05-21T11:49:23.263Z,36.63
2023-05-21T11:50:25.802Z,36.85
2023-05-21T11:51:27.581Z,36.59
2023-05-21T11:52:30.587Z,38.03
2023-05-21T11:53:32.228Z,35.50
2023-05-21T11:54:39.307Z,37.12
2023-05-21T11:55:47.300Z,34.26
2023-05-21T11:56:48.932Z,35.59
2023-05-21T11:57:53.432Z,34.73
2023-05-21T11:58:55.898Z,34.58
2023-05-21T12:00:01.566Z,32.68
2023-05-21T12:01:03.472Z,33.68
2023-05-21T12:02:05.508Z,32.95
2023-05-21T12:03:08.284Z,34.47
2023-05-21T12:04:13.553Z,33.34
2023-05-21T12:05:18.790Z,34.54
2023-05-21T12:06:26.764Z,35.19
2023-05-21T12:07:31.809Z,34.94
2023-05-21T12:08:33.408Z,33.25
2023-05-21T12:09:48.128Z,34.91
2023-05-21T12:11:03.620Z,35.19
2023-05-21T12:12:06.461Z,34.65
2023-05-21T12:13:08.129Z,36.35
2023-05-21T12:14:10.886Z,36.44
2023-05-21T12:15:13.479Z,36.32
2023-05-21T12:16:15.210Z,34.94
2023-05-21T12:17:25.304Z,35.91
2023-05-21T12:18:26.981Z,35.23
2023-05-21T12:19:29.269Z,36.16
2023-05-21T12:20:31.136Z,35.54
2023-05-21T12:21:33.288Z,35.94
2023-05-21T12:22:34.985Z,37.13
2023-05-21T12:23:36.718Z,35.18
2023-05-21T12:24:39.202Z,36.34
2023-05-21T12:25:40.997Z,36.98
2023-05-21T12:26:44.526Z,37.31
2023-05-21T12:27:46.636Z,36.01
2023-05-21T12:28:48.945Z,38.77
2023-05-21T12:29:51.829Z,38.62
2023-05-21T12:30:53.658Z,39.43
2023-05-21T12:31:59.479Z,38.81
2023-05-21T12:33:02.561Z,37.85
2023-05-21T12:34:04.553Z,38.88
2023-05-21T12:35:06.474Z,39.89
2023-05-21T12:36:08.150Z,40.01
2023-05-21T12:37:35.685Z,39.88
2023-05-21T12:38:37.495Z,40.47
2023-05-21T12:39:40.442Z,40.51
2023-05-21T12:40:43.659Z,40.58
2023-05-21T12:41:45.284Z,38.89
2023-05-21T12:42:46.984Z,40.40
2023-05-21T12:43:49.265Z,40.58
2023-05-21T12:44:52.014Z,41.79
2023-05-21T12:45:53.686Z,40.31
2023-05-21T12:46:55.615Z,40.51
2023-05-21T12:47:57.395Z,39.66
2023-05-21T12:48:59.025Z,40.47
2023-05-21T12:50:01.925Z,41.00
2023-05-21T12:51:03.642Z,40.90
2023-05-21T12:52:10.495Z,42.66
2023-05-21T12:53:12.378Z,43.29
2023-05-21T12:54:14.383Z,41.00
2023-05-21T12:55:17.192Z,38.62
2023-05-21T12:56:18.840Z,39.68
2023-05-21T12:57:25.042Z,39.98
2023-05-21T12:58:26.676Z,39.78
2023-05-21T12:59:28.295Z,42.07
2023-05-21T13:00:29.975Z,41.08
2023-05-21T13:01:31.627Z,40.81
2023-05-21T13:02:35.598Z,41.04
2023-05-21T13:03:38.257Z,41.22
2023-05-21T13:04:39.969Z,41.78
2023-05-21T13:05:42.229Z,39.44
2023-05-21T13:06:44.087Z,40.33
2023-05-21T13:07:48.888Z,39.28
2023-05-21T13:08:50.538Z,40.48
2023-05-21T13:09:53.441Z,37.30
2023-05-21T13:10:55.656Z,33.97
2023-05-21T13:11:57.205Z,36.96
2023-05-21T13:12:58.985Z,37.04
2023-05-21T13:14:00.771Z,37.22
2023-05-21T13:15:04.491Z,37.61
2023-05-21T13:16:06.420Z,36.23
2023-05-21T13:17:08.156Z,33.40
2023-05-21T13:18:09.879Z,36.01
2023-05-21T13:19:11.615Z,32.88
2023-05-21T13:20:20.457Z,33.30
2023-05-21T13:21:22.234Z,33.93
2023-05-21T13:22:23.854Z,34.15
2023-05-21T13:23:25.609Z,33.26
2023-05-21T13:24:27.259Z,34.92
2023-05-21T13:25:29.332Z,35.56
2023-05-21T13:26:31.092Z,35.02
2023-05-21T13:27:32.733Z,34.54
2023-05-21T13:28:34.371Z,35.84
2023-05-21T13:29:38.020Z,35.25
2023-05-21T13:30:39.852Z,34.81
2023-05-21T13:31:42.321Z,35.14
2023-05-21T13:32:44.215Z,36.95
2023-05-21T13:33:45.937Z,32.21
2023-05-21T13:34:48.057Z,33.84
2023-05-21T13:35:51.334Z,32.05
2023-05-21T13:36:52.951Z,32.61
2023-05-21T13:37:54.595Z,32.91
2023-05-21T13:38:56.437Z,32.11
2023-05-21T13:39:58.184Z,34.31
2023-05-21T13:40:59.791Z,32.59
2023-05-21T13:42:02.238Z,30.39
2023-05-21T13:43:03.875Z,31.40
2023-05-21T13:44:05.676Z,31.77